Time;durP1;ratioP1;P1;durP2;ratioP2;P2;SDS_P1;SDS_P2;PMS_P1;PMS_P2;Temp;Humidity;BMP_temperature;BMP_pressure;BME280_temperature;BME280_humidity;BME280_pressure;Samples;Min_cycle;Max_cycle;Signal;HPM_P1;HPM_P2
2022/09/05 00:00:34;;;;;;;10.88;7.53;;;;;;;;;;10393753;28;20031;-83
2022/09/05 00:05:38;;;;;;;7.63;6.40;;;;;;;;;;10398314;28;20029;-76
2022/09/05 00:10:38;;;;;;;11.27;6.53;;;;;;;;;;10399550;28;20036;-82
2022/09/05 00:15:47;;;;;;;9.25;6.32;;;;;;;;;;10398796;28;20459;-82
2022/09/05 00:20:47;;;;;;;10.15;7.18;;;;;;;;;;10392874;28;20014;-79
2022/09/05 00:25:48;;;;;;;9.35;7.32;;;;;;;;;;10397673;28;20813;-78
2022/09/05 00:31:07;;;;;;;9.88;7.53;;;;;;;;;;10398330;28;20013;-83
2022/09/05 00:36:15;;;;;;;13.40;8.25;;;;;;;;;;10383506;28;20009;-77
2022/09/05 00:41:16;;;;;;;11.43;7.90;;;;;;;;;;10395977;28;20045;-77
2022/09/05 00:46:32;;;;;;;10.75;8.93;;;;;;;;;;10397730;28;20065;-81
2022/09/05 00:51:46;;;;;;;11.48;8.30;;;;;;;;;;10389936;28;20041;-81
2022/09/05 00:56:47;;;;;;;12.45;8.30;;;;;;;;;;10399133;28;20064;-83
2022/09/05 01:01:54;;;;;;;15.27;7.95;;;;;;;;;;10397683;28;20581;-83
2022/09/05 01:06:57;;;;;;;11.95;7.75;;;;;;;;;;10398160;28;20041;-83
2022/09/05 01:12:08;;;;;;;11.65;7.30;;;;;;;;;;10395779;28;20029;-78
2022/09/05 01:17:19;;;;;;;11.20;7.13;;;;;;;;;;10397669;28;20017;-77
2022/09/05 01:22:20;;;;;;;10.50;7.30;;;;;;;;;;10395863;28;20033;-77
2022/09/05 01:27:27;;;;;;;13.57;7.80;;;;;;;;;;10403382;28;20417;-78
2022/09/05 01:32:46;;;;;;;12.95;8.18;;;;;;;;;;10403157;28;20403;-81
2022/09/05 01:37:49;;;;;;;10.55;7.40;;;;;;;;;;10405083;28;20060;-82
2022/09/05 01:42:52;;;;;;;9.70;6.65;;;;;;;;;;10403480;28;20532;-82
2022/09/05 01:48:10;;;;;;;12.55;7.85;;;;;;;;;;10403997;28;20046;-84
2022/09/05 01:53:10;;;;;;;9.17;7.30;;;;;;;;;;10403228;28;20044;-79
2022/09/05 01:58:10;;;;;;;13.88;9.00;;;;;;;;;;10403717;28;20174;-77
2022/09/05 02:03:35;;;;;;;14.43;7.82;;;;;;;;;;10404004;28;20135;-82
2022/09/05 02:08:47;;;;;;;13.25;8.30;;;;;;;;;;10402651;28;20116;-82
2022/09/05 02:13:55;;;;;;;10.23;7.80;;;;;;;;;;10402608;28;20029;-78
2022/09/05 02:19:07;;;;;;;15.45;8.90;;;;;;;;;;10402791;28;20018;-79
2022/09/05 02:24:21;;;;;;;11.90;8.52;;;;;;;;;;10401590;28;20179;-79
2022/09/05 02:29:29;;;;;;;10.35;7.55;;;;;;;;;;10401682;28;20035;-79
2022/09/05 02:34:33;;;;;;;6.50;5.00;;;;;;;;;;10401281;28;20104;-80
2022/09/05 02:39:33;;;;;;;7.57;5.75;;;;;;;;;;10403660;28;20195;-80
2022/09/05 02:44:40;;;;;;;7.53;5.30;;;;;;;;;;10400424;28;20580;-79
2022/09/05 02:50:01;;;;;;;7.03;5.20;;;;;;;;;;10400417;28;20521;-78
2022/09/05 02:55:07;;;;;;;9.85;6.45;;;;;;;;;;10402925;28;20045;-85
2022/09/05 03:00:27;;;;;;;9.50;7.00;;;;;;;;;;10401376;28;20049;-77
2022/09/05 03:05:45;;;;;;;7.47;6.13;;;;;;;;;;10401585;28;20067;-77
2022/09/05 03:11:04;;;;;;;7.33;5.93;;;;;;;;;;10390933;28;20064;-80
2022/09/05 03:16:36;;;;;;;9.00;6.43;;;;;;;;;;10401720;28;20021;-78
2022/09/05 03:21:56;;;;;;;6.82;5.00;;;;;;;;;;10381017;28;20175;-82
2022/09/05 03:27:03;;;;;;;5.78;4.65;;;;;;;;;;10399275;28;20029;-79
2022/09/05 03:32:03;;;;;;;7.38;5.13;;;;;;;;;;10393080;28;20041;-78
2022/09/05 03:37:29;;;;;;;7.55;5.07;;;;;;;;;;10402745;28;20454;-86
2022/09/05 03:42:50;;;;;;;6.15;4.90;;;;;;;;;;10396475;28;20045;-82
2022/09/05 03:48:06;;;;;;;9.73;4.93;;;;;;;;;;10401077;28;20029;-82
2022/09/05 03:53:24;;;;;;;9.32;4.70;;;;;;;;;;10400199;28;20082;-80
2022/09/05 03:58:24;;;;;;;;;;;;;;;;;;10399517;28;20041;-79
2022/09/05 04:03:26;;;;;;;9.52;4.78;;;;;;;;;;10399593;28;20008;-82
2022/09/05 04:08:32;;;;;;;7.47;5.55;;;;;;;;;;10372580;28;20132;-81
2022/09/05 04:13:44;;;;;;;7.30;5.53;;;;;;;;;;10399921;28;20148;-78
2022/09/05 04:18:50;;;;;;;9.77;7.20;;;;;;;;;;10398376;28;20031;-80
2022/09/05 04:24:12;;;;;;;6.00;5.18;;;;;;;;;;10398847;28;20026;-83
2022/09/05 04:29:16;;;;;;;10.30;5.43;;;;;;;;;;10398145;28;20063;-79
2022/09/05 04:34:16;;;;;;;8.25;5.75;;;;;;;;;;10398558;28;20475;-77
2022/09/05 04:39:17;;;;;;;8.70;5.95;;;;;;;;;;10394666;28;20025;-79
2022/09/05 04:44:20;;;;;;;9.63;5.50;;;;;;;;;;10398053;28;20535;-79
2022/09/05 04:49:24;;;;;;;10.02;6.05;;;;;;;;;;10398726;28;20624;-83
2022/09/05 04:54:36;;;;;;;8.55;6.13;;;;;;;;;;10397576;28;20017;-79
2022/09/05 04:59:44;;;;;;;8.63;6.05;;;;;;;;;;10399775;28;20017;-81
2022/09/05 05:04:45;;;;;;;8.48;6.03;;;;;;;;;;10405195;28;20513;-82
2022/09/05 05:09:51;;;;;;;9.77;5.47;;;;;;;;;;10404655;28;20083;-84
2022/09/05 05:15:02;;;;;;;13.95;6.88;;;;;;;;;;10393312;28;20029;-83
2022/09/05 05:20:08;;;;;;;11.48;7.68;;;;;;;;;;10399084;28;20143;-86
2022/09/05 05:25:09;;;;;;;11.93;6.57;;;;;;;;;;10397621;28;20028;-84
2022/09/05 05:30:10;;;;;;;12.80;6.40;;;;;;;;;;10404573;28;20028;-82
2022/09/05 05:35:12;;;;;;;12.43;7.07;;;;;;;;;;10398288;28;20894;-80
2022/09/05 05:40:15;;;;;;;14.00;6.90;;;;;;;;;;10403548;28;20013;-80
2022/09/05 05:45:17;;;;;;;13.13;7.28;;;;;;;;;;10396010;28;20487;-80
2022/09/05 05:50:33;;;;;;;15.23;7.30;;;;;;;;;;10398294;28;20075;-79
2022/09/05 05:55:51;;;;;;;14.43;7.05;;;;;;;;;;10399837;28;20017;-79
2022/09/05 06:01:07;;;;;;;9.45;6.38;;;;;;;;;;10400314;28;20040;-83
2022/09/05 06:06:14;;;;;;;13.18;6.57;;;;;;;;;;10402576;28;20592;-83
2022/09/05 06:11:27;;;;;;;10.38;6.93;;;;;;;;;;10397084;28;20017;-80
2022/09/05 06:16:33;;;;;;;8.77;5.63;;;;;;;;;;10387827;28;20025;-79
2022/09/05 06:21:53;;;;;;;10.65;5.40;;;;;;;;;;10398696;28;20017;-80
2022/09/05 06:27:17;;;;;;;6.15;4.82;;;;;;;;;;10393531;28;20014;-77
2022/09/05 06:32:37;;;;;;;8.95;4.30;;;;;;;;;;10401422;28;20017;-79
2022/09/05 06:37:45;;;;;;;7.05;4.50;;;;;;;;;;10400660;28;20055;-76
2022/09/05 06:42:45;;;;;;;;;;;;;;;;;;10382443;28;20128;-77
2022/09/05 06:47:46;;;;;;;6.63;3.58;;;;;;;;;;10400713;28;19916;-77
2022/09/05 06:53:05;;;;;;;4.45;3.75;;;;;;;;;;10390087;28;20554;-80
2022/09/05 06:58:20;;;;;;;5.00;3.25;;;;;;;;;;10390785;28;20060;-81
2022/09/05 07:03:39;;;;;;;9.10;3.83;;;;;;;;;;10389058;28;20046;-76
2022/09/05 07:08:58;;;;;;;5.97;3.25;;;;;;;;;;10403226;28;20030;-81
2022/09/05 07:14:18;;;;;;;7.88;3.00;;;;;;;;;;10393058;28;20022;-78
2022/09/05 07:19:26;;;;;;;5.47;2.88;;;;;;;;;;10388881;28;20022;-82
2022/09/05 07:24:27;;;;;;;2.28;1.88;;;;;;;;;;10397198;28;20036;-72
2022/09/05 07:29:31;;;;;;;6.38;2.72;;;;;;;;;;10399478;28;20021;-73
2022/09/05 07:34:33;;;;;;;2.92;1.55;;;;;;;;;;10398714;28;20112;-73
2022/09/05 07:39:38;;;;;;;4.18;1.80;;;;;;;;;;10399629;28;20123;-73
2022/09/05 07:44:40;;;;;;;1.60;1.50;;;;;;;;;;10400391;28;20041;-77
2022/09/05 07:49:42;;;;;;;2.83;1.75;;;;;;;;;;10398907;28;20113;-75
2022/09/05 07:54:44;;;;;;;3.38;1.50;;;;;;;;;;10398535;28;20049;-73
2022/09/05 07:59:46;;;;;;;3.13;1.25;;;;;;;;;;10399758;28;20015;-76
2022/09/05 08:04:47;;;;;;;3.03;1.23;;;;;;;;;;10396703;28;20363;-77
2022/09/05 08:09:49;;;;;;;1.90;1.25;;;;;;;;;;10372822;28;20033;-76
2022/09/05 08:14:57;;;;;;;2.22;1.70;;;;;;;;;;10387318;28;20021;-77
2022/09/05 08:20:07;;;;;;;3.88;2.20;;;;;;;;;;10398472;28;20056;-73
2022/09/05 08:25:13;;;;;;;3.72;2.45;;;;;;;;;;10397793;28;20033;-76
2022/09/05 08:30:14;;;;;;;4.73;1.83;;;;;;;;;;10396929;28;20045;-75
2022/09/05 08:35:14;;;;;;;2.78;1.85;;;;;;;;;;10372521;28;20516;-74
2022/09/05 08:40:26;;;;;;;2.47;1.85;;;;;;;;;;10405322;28;20041;-73
2022/09/05 08:45:36;;;;;;;3.00;1.70;;;;;;;;;;10405650;28;20080;-72
2022/09/05 08:50:36;;;;;;;1.92;1.00;;;;;;;;;;10405139;28;20034;-72
2022/09/05 08:55:50;;;;;;;2.88;1.42;;;;;;;;;;10388136;28;20030;-78
2022/09/05 09:01:00;;;;;;;7.50;1.90;;;;;;;;;;10405396;28;20117;-73
2022/09/05 09:06:09;;;;;;;4.65;2.25;;;;;;;;;;10405094;28;20502;-71
2022/09/05 09:11:13;;;;;;;5.25;1.98;;;;;;;;;;10404147;28;20617;-74
2022/09/05 09:16:13;;;;;;;1.85;1.40;;;;;;;;;;10404930;28;20020;-76
2022/09/05 09:21:32;;;;;;;3.78;1.55;;;;;;;;;;10404084;28;20032;-74
2022/09/05 09:26:52;;;;;;;3.03;2.22;;;;;;;;;;10404086;28;20401;-78
2022/09/05 09:31:53;;;;;;;1.55;1.20;;;;;;;;;;10404061;28;20025;-77
2022/09/05 09:36:56;;;;;;;2.75;1.23;;;;;;;;;;10403577;28;20020;-72
2022/09/05 09:42:12;;;;;;;4.53;1.73;;;;;;;;;;10403145;28;20242;-76
2022/09/05 09:47:13;;;;;;;2.15;1.83;;;;;;;;;;10384477;28;20082;-74
2022/09/05 09:52:37;;;;;;;2.22;1.55;;;;;;;;;;10392364;28;20072;-76
2022/09/05 09:57:43;;;;;;;2.10;1.67;;;;;;;;;;10403557;28;20029;-72
2022/09/05 10:02:53;;;;;;;4.13;1.77;;;;;;;;;;10402562;28;20022;-71
2022/09/05 10:08:05;;;;;;;3.03;1.67;;;;;;;;;;10401255;28;20471;-73
2022/09/05 10:13:12;;;;;;;1.70;1.10;;;;;;;;;;10402106;28;20025;-73
2022/09/05 10:18:31;;;;;;;1.25;1.00;;;;;;;;;;10402318;28;20048;-75
2022/09/05 10:23:44;;;;;;;2.35;1.33;;;;;;;;;;10402175;28;20116;-74
2022/09/05 10:29:03;;;;;;;1.90;1.08;;;;;;;;;;10401501;28;20510;-78
2022/09/05 10:34:16;;;;;;;1.95;0.77;;;;;;;;;;10401434;28;20042;-76
2022/09/05 10:39:18;;;;;;;2.63;1.55;;;;;;;;;;10402273;28;20057;-78
2022/09/05 10:44:39;;;;;;;1.52;1.35;;;;;;;;;;10402133;28;20103;-73
2022/09/05 10:49:44;;;;;;;2.08;1.23;;;;;;;;;;10400180;28;20028;-73
2022/09/05 10:54:57;;;;;;;1.95;1.10;;;;;;;;;;10400347;28;20448;-75
2022/09/05 11:00:03;;;;;;;1.77;0.90;;;;;;;;;;10400178;28;20033;-80
2022/09/05 11:05:04;;;;;;;2.15;1.23;;;;;;;;;;10401148;28;20116;-73
2022/09/05 11:10:30;;;;;;;3.38;1.60;;;;;;;;;;10400880;28;20536;-77
2022/09/05 11:15:49;;;;;;;5.55;1.45;;;;;;;;;;10402339;28;20021;-76
2022/09/05 11:21:08;;;;;;;2.25;1.40;;;;;;;;;;10399391;28;20100;-75
2022/09/05 11:26:32;;;;;;;1.75;1.40;;;;;;;;;;10401343;28;20091;-73
2022/09/05 11:31:45;;;;;;;3.85;1.58;;;;;;;;;;10392788;28;20095;-77
2022/09/05 11:36:47;;;;;;;4.53;1.85;;;;;;;;;;10399120;28;20400;-79
2022/09/05 11:41:59;;;;;;;4.57;2.20;;;;;;;;;;10399984;28;20029;-80
2022/09/05 11:47:10;;;;;;;2.92;1.90;;;;;;;;;;10398799;28;20042;-73
2022/09/05 11:52:22;;;;;;;2.97;1.65;;;;;;;;;;10397147;28;20030;-73
2022/09/05 11:57:37;;;;;;;2.08;1.67;;;;;;;;;;10399109;28;20482;-74
2022/09/05 12:03:04;;;;;;;2.47;1.92;;;;;;;;;;10399771;28;20069;-75
2022/09/05 12:08:10;;;;;;;2.47;1.95;;;;;;;;;;10386025;28;20022;-73
2022/09/05 12:13:19;;;;;;;2.40;1.90;;;;;;;;;;10383528;28;20033;-77
2022/09/05 12:18:38;;;;;;;8.27;2.33;;;;;;;;;;10380798;28;20033;-74
2022/09/05 12:23:47;;;;;;;3.55;1.95;;;;;;;;;;10365732;28;20136;-73
2022/09/05 12:28:56;;;;;;;4.80;2.10;;;;;;;;;;10361070;28;20037;-73
2022/09/05 12:33:59;;;;;;;9.05;3.42;;;;;;;;;;10385068;28;20495;-74
2022/09/05 12:39:18;;;;;;;4.95;1.95;;;;;;;;;;10389730;28;20116;-73
2022/09/05 12:44:19;;;;;;;4.05;2.88;;;;;;;;;;10389878;28;20072;-73
2022/09/05 12:49:38;;;;;;;3.03;2.33;;;;;;;;;;10388081;28;20044;-73
2022/09/05 12:54:50;;;;;;;4.38;2.08;;;;;;;;;;10380674;28;20113;-73
2022/09/05 12:59:51;;;;;;;3.70;2.30;;;;;;;;;;10375027;28;20044;-74
2022/09/05 13:04:56;;;;;;;4.95;2.83;;;;;;;;;;10387513;28;20052;-80
2022/09/05 13:09:59;;;;;;;5.53;2.20;;;;;;;;;;10388088;28;20099;-78
2022/09/05 13:15:05;;;;;;;3.65;2.05;;;;;;;;;;10386207;28;20034;-72
2022/09/05 13:20:44;;;;;;;3.38;1.98;;;;;;;;;;10388586;28;20030;-81
2022/09/05 13:25:56;;;;;;;4.03;2.13;;;;;;;;;;10392302;28;20033;-84
2022/09/05 13:30:59;;;;;;;2.75;1.83;;;;;;;;;;10397638;28;20084;-75
2022/09/05 13:36:04;;;;;;;5.55;2.60;;;;;;;;;;10393314;28;20106;-78
2022/09/05 13:41:05;;;;;;;3.58;2.60;;;;;;;;;;10390960;28;20026;-83
2022/09/05 13:46:15;;;;;;;3.28;2.35;;;;;;;;;;10393636;28;20614;-79
2022/09/05 13:51:26;;;;;;;3.42;2.03;;;;;;;;;;10394578;28;20657;-80
2022/09/05 13:56:28;;;;;;;3.28;2.30;;;;;;;;;;10375324;28;20088;-76
2022/09/05 14:01:37;;;;;;;3.75;2.50;;;;;;;;;;10376352;28;20057;-80
2022/09/05 14:07:07;;;;;;;3.58;2.33;;;;;;;;;;10390025;28;20105;-76
2022/09/05 14:12:16;;;;;;;3.05;2.17;;;;;;;;;;10365170;28;20371;-80
2022/09/05 14:17:16;;;;;;;6.30;4.13;;;;;;;;;;10393863;28;20411;-76
2022/09/05 14:22:36;;;;;;;3.85;2.75;;;;;;;;;;10393554;28;20030;-77
2022/09/05 14:27:41;;;;;;;4.15;3.13;;;;;;;;;;10380989;28;20113;-76
2022/09/05 14:32:54;;;;;;;4.63;2.40;;;;;;;;;;10392811;28;20021;-77
2022/09/05 14:37:58;;;;;;;4.75;2.55;;;;;;;;;;10392422;28;20025;-76
2022/09/05 14:43:12;;;;;;;3.55;2.53;;;;;;;;;;10394064;28;20146;-76
2022/09/05 14:48:16;;;;;;;3.90;2.50;;;;;;;;;;10396150;28;20030;-77
2022/09/05 14:53:22;;;;;;;4.35;2.55;;;;;;;;;;10389609;28;20060;-81
2022/09/05 14:58:23;;;;;;;6.95;2.70;;;;;;;;;;10392540;28;20026;-81
2022/09/05 15:03:25;;;;;;;6.55;2.35;;;;;;;;;;10394183;28;20029;-81
2022/09/05 15:08:30;;;;;;;2.72;2.17;;;;;;;;;;10393992;28;20116;-82
2022/09/05 15:13:37;;;;;;;3.13;2.55;;;;;;;;;;10389275;28;20039;-83
2022/09/05 15:18:39;;;;;;;6.00;2.90;;;;;;;;;;10382169;28;20128;-77
2022/09/05 15:23:39;;;;;;;4.85;2.25;;;;;;;;;;10383367;28;20033;-77
2022/09/05 15:28:41;;;;;;;3.22;2.03;;;;;;;;;;10370817;28;20104;-77
2022/09/05 15:33:42;;;;;;;2.45;1.80;;;;;;;;;;10369005;28;20171;-76
2022/09/05 15:38:45;;;;;;;4.85;2.03;;;;;;;;;;10362128;28;20025;-77
2022/09/05 15:44:05;;;;;;;4.82;2.40;;;;;;;;;;10384679;28;20054;-79
2022/09/05 15:49:11;;;;;;;3.40;2.30;;;;;;;;;;10382289;28;20033;-80
2022/09/05 15:54:18;;;;;;;8.75;2.88;;;;;;;;;;10373138;28;20033;-78
2022/09/05 15:59:21;;;;;;;9.27;3.88;;;;;;;;;;10390088;28;20087;-79
2022/09/05 16:04:25;;;;;;;13.45;4.18;;;;;;;;;;10390792;28;20037;-82
2022/09/05 16:09:25;;;;;;;5.85;2.50;;;;;;;;;;10391303;28;20071;-81
2022/09/05 16:14:32;;;;;;;3.50;2.30;;;;;;;;;;10389744;28;20156;-81
2022/09/05 16:19:42;;;;;;;6.22;3.00;;;;;;;;;;10382603;28;20509;-80
2022/09/05 16:24:43;;;;;;;6.03;2.22;;;;;;;;;;10393693;28;20026;-78
2022/09/05 16:29:49;;;;;;;4.93;2.53;;;;;;;;;;10386610;28;20081;-80
2022/09/05 16:34:54;;;;;;;5.28;2.92;;;;;;;;;;10388520;28;20029;-79
2022/09/05 16:39:59;;;;;;;5.50;2.65;;;;;;;;;;10369142;28;20415;-81
2022/09/05 16:45:07;;;;;;;3.97;2.35;;;;;;;;;;10376459;28;20049;-79
2022/09/05 16:50:10;;;;;;;7.65;2.60;;;;;;;;;;10382528;28;20130;-78
2022/09/05 16:55:14;;;;;;;6.32;3.38;;;;;;;;;;10388534;28;20035;-79
2022/09/05 17:00:16;;;;;;;5.00;3.38;;;;;;;;;;10368589;28;20504;-82
2022/09/05 17:05:55;;;;;;;5.15;3.17;;;;;;;;;;10392578;28;20044;-82
2022/09/05 17:11:03;;;;;;;6.03;3.13;;;;;;;;;;10349801;28;20029;-82
2022/09/05 17:16:05;;;;;;;9.57;3.00;;;;;;;;;;10372230;28;20432;-78
2022/09/05 17:21:07;;;;;;;4.68;2.78;;;;;;;;;;10391931;28;20116;-79
2022/09/05 17:26:08;;;;;;;5.72;2.92;;;;;;;;;;10384677;28;20054;-83
2022/09/05 17:31:08;;;;;;;4.63;3.50;;;;;;;;;;10389768;28;20108;-81
2022/09/05 17:36:08;;;;;;;9.57;4.17;;;;;;;;;;10382309;28;20288;-77
2022/09/05 17:41:24;;;;;;;6.90;3.30;;;;;;;;;;10383365;28;20021;-77
2022/09/05 17:46:28;;;;;;;6.03;3.40;;;;;;;;;;10384073;28;20837;-80
2022/09/05 17:51:28;;;;;;;5.22;3.63;;;;;;;;;;10377137;28;20018;-79
2022/09/05 17:56:39;;;;;;;11.30;3.70;;;;;;;;;;10376374;28;20483;-80
2022/09/05 18:01:42;;;;;;;6.22;3.08;;;;;;;;;;10389772;28;20025;-81
2022/09/05 18:06:45;;;;;;;5.43;3.40;;;;;;;;;;10388369;28;20025;-83
2022/09/05 18:12:04;;;;;;;5.03;2.95;;;;;;;;;;10395398;28;20022;-78
2022/09/05 18:17:34;;;;;;;3.63;2.92;;;;;;;;;;10381423;28;20484;-78
2022/09/05 18:22:38;;;;;;;6.68;2.65;;;;;;;;;;10388068;28;20033;-77
2022/09/05 18:27:41;;;;;;;3.83;3.22;;;;;;;;;;10397088;28;20044;-81
2022/09/05 18:32:41;;;;;;;8.00;3.13;;;;;;;;;;10386574;28;20067;-82
2022/09/05 18:37:50;;;;;;;8.63;3.78;;;;;;;;;;10394485;28;20021;-78
2022/09/05 18:42:51;;;;;;;13.63;5.45;;;;;;;;;;10398963;28;20140;-83
2022/09/05 18:47:53;;;;;;;5.43;3.25;;;;;;;;;;10394486;28;20029;-82
2022/09/05 18:52:57;;;;;;;6.22;2.85;;;;;;;;;;10380719;28;20017;-78
2022/09/05 18:57:59;;;;;;;4.28;2.97;;;;;;;;;;10381904;28;20084;-77
2022/09/05 19:03:11;;;;;;;4.03;2.78;;;;;;;;;;10390050;28;20033;-79
2022/09/05 19:08:20;;;;;;;3.67;2.75;;;;;;;;;;10385947;28;20419;-79
2022/09/05 19:13:24;;;;;;;4.20;2.42;;;;;;;;;;10385121;28;20034;-76
2022/09/05 19:18:24;;;;;;;5.07;3.00;;;;;;;;;;10392324;28;20341;-76
2022/09/05 19:23:26;;;;;;;6.30;3.30;;;;;;;;;;10376189;28;20036;-82
2022/09/05 19:28:31;;;;;;;8.80;3.10;;;;;;;;;;10375806;28;20496;-81
2022/09/05 19:33:33;;;;;;;5.50;2.40;;;;;;;;;;10358276;28;20034;-79
2022/09/05 19:38:40;;;;;;;4.18;2.90;;;;;;;;;;10371971;28;20551;-81
2022/09/05 19:44:00;;;;;;;4.13;3.30;;;;;;;;;;10363013;28;20061;-81
2022/09/05 19:49:03;;;;;;;8.45;3.20;;;;;;;;;;10391301;28;20021;-79
2022/09/05 19:54:04;;;;;;;7.38;2.35;;;;;;;;;;10375783;28;20025;-78
2022/09/05 19:59:15;;;;;;;6.40;3.03;;;;;;;;;;10373633;28;20025;-78
2022/09/05 20:04:17;;;;;;;4.93;2.50;;;;;;;;;;10371325;28;20507;-78
2022/09/05 20:09:22;;;;;;;4.38;2.75;;;;;;;;;;10361023;28;20038;-83
2022/09/05 20:14:22;;;;;;;4.30;3.00;;;;;;;;;;10385494;28;20117;-79
2022/09/05 20:19:22;;;;;;;4.97;2.75;;;;;;;;;;10383308;28;20028;-79
2022/09/05 20:24:23;;;;;;;5.57;3.43;;;;;;;;;;10387726;28;20107;-82
2022/09/05 20:29:34;;;;;;;4.93;2.85;;;;;;;;;;10396726;28;20569;-82
2022/09/05 20:34:35;;;;;;;5.82;3.13;;;;;;;;;;10367664;28;20507;-76
2022/09/05 20:39:40;;;;;;;6.05;3.25;;;;;;;;;;10379306;28;20506;-80
2022/09/05 20:44:49;;;;;;;3.72;2.38;;;;;;;;;;10390336;28;20077;-76
2022/09/05 20:49:51;;;;;;;5.95;2.90;;;;;;;;;;10386336;28;20022;-80
2022/09/05 20:54:52;;;;;;;4.97;2.80;;;;;;;;;;10389739;28;20025;-78
2022/09/05 20:59:52;;;;;;;5.38;2.88;;;;;;;;;;10386500;28;20026;-81
2022/09/05 21:04:58;;;;;;;5.28;2.70;;;;;;;;;;10387583;28;20113;-82
2022/09/05 21:10:00;;;;;;;3.33;2.10;;;;;;;;;;10396333;28;20120;-77
2022/09/05 21:15:32;;;;;;;8.05;3.00;;;;;;;;;;10396044;28;20038;-76
2022/09/05 21:20:34;;;;;;;4.78;3.10;;;;;;;;;;10387343;28;20316;-79
2022/09/05 21:25:46;;;;;;;4.30;2.63;;;;;;;;;;10398742;28;20077;-79
2022/09/05 21:30:46;;;;;;;5.30;3.35;;;;;;;;;;10396300;28;20021;-79
2022/09/05 21:35:53;;;;;;;7.05;3.00;;;;;;;;;;10385585;28;20025;-81
2022/09/05 21:40:53;;;;;;;4.68;3.30;;;;;;;;;;10390506;28;20072;-83
2022/09/05 21:45:55;;;;;;;6.10;4.32;;;;;;;;;;10401089;28;20719;-79
2022/09/05 21:50:58;;;;;;;7.07;4.00;;;;;;;;;;10401867;28;20022;-82
2022/09/05 21:55:59;;;;;;;4.32;3.47;;;;;;;;;;10397982;28;20498;-80
2022/09/05 22:01:01;;;;;;;4.35;3.42;;;;;;;;;;10404015;28;20017;-78
2022/09/05 22:06:01;;;;;;;5.25;2.85;;;;;;;;;;10404183;28;20021;-80
2022/09/05 22:11:01;;;;;;;8.75;4.07;;;;;;;;;;10402269;28;20028;-78
2022/09/05 22:16:06;;;;;;;6.85;3.67;;;;;;;;;;10402450;28;20033;-86
2022/09/05 22:21:10;;;;;;;4.85;3.78;;;;;;;;;;10402648;28;20021;-78
2022/09/05 22:26:12;;;;;;;5.60;4.05;;;;;;;;;;10402895;28;20028;-76
2022/09/05 22:31:12;;;;;;;4.63;3.60;;;;;;;;;;10402291;28;20344;-83
2022/09/05 22:36:12;;;;;;;5.40;4.15;;;;;;;;;;10402316;28;20029;-78
2022/09/05 22:41:13;;;;;;;5.88;4.63;;;;;;;;;;10403445;28;20020;-82
2022/09/05 22:46:13;;;;;;;7.80;4.57;;;;;;;;;;10404393;28;20049;-82
2022/09/05 22:51:15;;;;;;;9.50;5.33;;;;;;;;;;10401538;28;20086;-77
2022/09/05 22:56:27;;;;;;;11.02;4.95;;;;;;;;;;10418963;28;20025;-79
2022/09/05 23:01:28;;;;;;;6.43;4.85;;;;;;;;;;10395964;28;20479;-82
2022/09/05 23:06:32;;;;;;;7.10;4.65;;;;;;;;;;10404991;28;20025;-82
2022/09/05 23:11:32;;;;;;;10.73;5.95;;;;;;;;;;10402540;28;20029;-79
2022/09/05 23:16:32;;;;;;;8.82;4.40;;;;;;;;;;10402135;28;20054;-80
2022/09/05 23:21:33;;;;;;;6.93;5.20;;;;;;;;;;10402691;28;20040;-81
2022/09/05 23:26:33;;;;;;;9.20;5.38;;;;;;;;;;10400664;28;20484;-80
2022/09/05 23:31:33;;;;;;;7.35;4.80;;;;;;;;;;10400061;28;20143;-81
2022/09/05 23:36:33;;;;;;;5.60;4.57;;;;;;;;;;10400800;28;20028;-78
2022/09/05 23:41:34;;;;;;;5.65;4.05;;;;;;;;;;10400622;28;20030;-81
2022/09/05 23:46:34;;;;;;;9.27;4.82;;;;;;;;;;10399958;28;20045;-82
2022/09/05 23:51:34;;;;;;;5.68;4.13;;;;;;;;;;10399880;28;20028;-79
2022/09/05 23:56:34;;;;;;;9.93;5.00;;;;;;;;;;10399134;28;20080;-78
